createdAt,value
2018-05-02T00:02:21.056Z,11.34
2018-05-02T00:04:51.624Z,11.44
2018-05-02T00:07:24.611Z,11.35
2018-05-02T00:09:57.031Z,11.35
2018-05-02T00:12:27.636Z,11.32
2018-05-02T00:15:00.050Z,11.26
2018-05-02T00:17:33.634Z,11.08
2018-05-02T00:20:04.066Z,10.89
2018-05-02T00:22:34.685Z,10.83
2018-05-02T00:25:05.458Z,10.78
2018-05-02T00:27:35.872Z,10.86
2018-05-02T00:30:07.701Z,10.72
2018-05-02T00:32:38.284Z,10.76
2018-05-02T00:35:09.442Z,10.56
2018-05-02T00:37:40.721Z,10.50
2018-05-02T00:40:11.174Z,10.64
2018-05-02T00:42:42.081Z,10.78
2018-05-02T00:45:15.416Z,10.75
2018-05-02T00:47:45.610Z,10.60
2018-05-02T00:50:17.397Z,10.50
2018-05-02T00:52:47.831Z,10.35
2018-05-02T00:55:18.658Z,10.41
2018-05-02T00:57:49.753Z,10.37
2018-05-02T01:00:20.507Z,10.41
2018-05-02T01:02:50.968Z,10.28
2018-05-02T01:05:21.495Z,10.27
2018-05-02T01:07:51.893Z,10.30
2018-05-02T01:10:24.282Z,10.26
2018-05-02T01:12:56.118Z,10.21
2018-05-02T01:15:27.316Z,10.22
2018-05-02T01:17:58.038Z,10.21
2018-05-02T01:20:28.242Z,10.16
2018-05-02T01:22:58.903Z,10.02
2018-05-02T01:25:30.412Z,10.03
2018-05-02T01:28:00.753Z,9.96
2018-05-02T01:30:31.692Z,9.92
2018-05-02T01:33:02.479Z,9.97
2018-05-02T01:35:32.991Z,10.01
2018-05-02T01:38:03.297Z,9.92
2018-05-02T01:40:33.854Z,9.98
2018-05-02T01:43:04.946Z,9.89
2018-05-02T01:45:35.526Z,9.73
2018-05-02T01:48:06.558Z,9.78
2018-05-02T01:50:37.280Z,9.86
2018-05-02T01:53:07.662Z,9.94
2018-05-02T01:55:38.333Z,10.00
2018-05-02T01:58:08.963Z,9.95
2018-05-02T02:00:40.818Z,9.78
2018-05-02T02:03:11.412Z,9.86
2018-05-02T02:05:41.964Z,9.92
2018-05-02T02:08:13.057Z,9.91
2018-05-02T02:10:43.602Z,9.94
2018-05-02T02:13:14.415Z,9.99
2018-05-02T02:15:46.760Z,10.11
2018-05-02T02:18:17.147Z,10.25
2018-05-02T02:20:47.609Z,10.23
2018-05-02T02:23:20.130Z,10.24
2018-05-02T02:25:51.668Z,10.15
2018-05-02T02:28:22.257Z,10.07
2018-05-02T02:30:53.429Z,9.96
2018-05-02T02:33:23.778Z,9.92
2018-05-02T02:35:54.142Z,9.94
2018-05-02T02:38:25.117Z,10.07
2018-05-02T02:41:00.428Z,10.12
2018-05-02T02:43:35.423Z,10.14
2018-05-02T02:46:07.655Z,10.15
2018-05-02T02:48:37.805Z,9.97
2018-05-02T02:51:08.476Z,9.99
2018-05-02T02:53:38.679Z,10.19
2018-05-02T02:56:09.040Z,10.17
2018-05-02T02:58:42.128Z,10.22
2018-05-02T03:01:13.016Z,10.19
2018-05-02T03:03:44.704Z,10.21
2018-05-02T03:06:15.296Z,10.09
2018-05-02T03:08:47.873Z,9.96
2018-05-02T03:11:18.670Z,9.93
2018-05-02T03:13:49.282Z,9.82
2018-05-02T03:16:20.195Z,9.72
2018-05-02T03:18:50.721Z,9.62
2018-05-02T03:21:21.062Z,9.64
2018-05-02T03:23:51.372Z,9.62
2018-05-02T03:26:22.020Z,9.63
2018-05-02T03:28:52.208Z,9.59
2018-05-02T03:31:22.894Z,9.55
2018-05-02T03:33:53.018Z,9.58
2018-05-02T03:36:23.925Z,9.56
2018-05-02T03:38:54.487Z,9.62
2018-05-02T03:41:24.727Z,9.63
2018-05-02T03:43:55.944Z,9.57
2018-05-02T03:46:27.277Z,9.69
2018-05-02T03:48:58.000Z,9.66
2018-05-02T03:51:29.305Z,9.41
2018-05-02T03:54:00.237Z,9.40
2018-05-02T03:56:30.981Z,9.43
2018-05-02T03:59:07.576Z,9.47
2018-05-02T04:01:49.019Z,9.34
2018-05-02T04:04:34.031Z,9.21
2018-05-02T04:07:15.056Z,9.06
2018-05-02T04:09:51.357Z,9.17
2018-05-02T04:12:22.510Z,9.15
2018-05-02T04:14:53.355Z,9.20
2018-05-02T04:17:24.626Z,9.37
2018-05-02T04:19:59.383Z,9.38
2018-05-02T04:22:29.693Z,9.34
2018-05-02T04:25:00.979Z,9.36
2018-05-02T04:27:31.738Z,9.53
2018-05-02T04:30:05.457Z,9.38
2018-05-02T04:32:36.104Z,9.41
2018-05-02T04:35:06.830Z,9.48
2018-05-02T04:37:37.851Z,9.46
2018-05-02T04:40:08.208Z,9.56
2018-05-02T04:42:38.572Z,9.54
2018-05-02T04:45:15.642Z,9.48
2018-05-02T04:47:48.929Z,9.43
2018-05-02T04:50:19.556Z,9.58
2018-05-02T04:52:49.714Z,9.69
2018-05-02T04:55:20.147Z,9.78
2018-05-02T04:57:51.660Z,10.03
2018-05-02T05:00:24.429Z,10.09
2018-05-02T05:02:55.011Z,10.36
2018-05-02T05:05:26.644Z,10.28
2018-05-02T05:07:57.941Z,10.31
2018-05-02T05:10:30.362Z,10.36
2018-05-02T05:13:01.504Z,10.52
2018-05-02T05:15:32.195Z,10.64
2018-05-02T05:18:03.524Z,10.85
2018-05-02T05:20:34.248Z,11.10
2018-05-02T05:23:04.533Z,11.26
2018-05-02T05:28:32.366Z,11.72
2018-05-02T05:31:03.068Z,11.82
2018-05-02T05:33:34.627Z,12.08
2018-05-02T05:36:06.000Z,12.19
2018-05-02T05:38:36.699Z,12.53
2018-05-02T05:41:07.969Z,12.39
2018-05-02T05:43:38.705Z,12.21
2018-05-02T05:46:09.305Z,12.47
2018-05-02T05:51:17.755Z,12.02
2018-05-02T05:53:50.393Z,11.99
2018-05-02T05:56:21.988Z,12.58
2018-05-02T06:01:26.129Z,13.15
2018-05-02T06:03:56.416Z,13.26
2018-05-02T06:06:28.127Z,13.80
2018-05-02T06:09:07.740Z,14.19
2018-05-02T06:11:46.462Z,14.54
2018-05-02T06:14:18.782Z,14.33
2018-05-02T06:17:00.261Z,14.86
2018-05-02T06:19:32.669Z,15.10
2018-05-02T06:22:03.663Z,15.51
2018-05-02T06:24:34.063Z,15.78
2018-05-02T06:27:09.585Z,15.94
2018-05-02T06:29:42.015Z,16.37
2018-05-02T06:32:12.971Z,16.47
2018-05-02T06:34:44.351Z,15.57
2018-05-02T06:37:26.648Z,16.44
2018-05-02T06:39:58.736Z,17.03
2018-05-02T06:42:30.747Z,16.82
2018-05-02T06:45:04.157Z,16.91
2018-05-02T06:47:37.011Z,16.14
2018-05-02T06:50:10.724Z,16.63
2018-05-02T06:52:43.798Z,15.63
2018-05-02T06:55:16.429Z,15.47
2018-05-02T07:00:50.229Z,16.13
2018-05-02T07:03:22.183Z,15.93
2018-05-02T07:05:53.368Z,16.29
2018-05-02T07:08:25.316Z,16.83
2018-05-02T07:10:56.106Z,16.35
2018-05-02T07:13:37.453Z,17.32
2018-05-02T07:16:15.075Z,17.61
2018-05-02T07:18:47.906Z,16.45
2018-05-02T07:21:20.208Z,16.35
2018-05-02T07:23:51.490Z,16.17
2018-05-02T07:28:59.260Z,17.39
2018-05-02T07:31:30.001Z,16.61
2018-05-02T07:34:01.668Z,16.73
2018-05-02T07:36:37.954Z,17.19
2018-05-02T07:39:11.021Z,16.54
2018-05-02T07:41:41.910Z,16.40
2018-05-02T07:44:13.145Z,16.66
2018-05-02T07:46:50.228Z,17.65
2018-05-02T07:49:36.547Z,17.81
2018-05-02T07:52:12.235Z,17.89
2018-05-02T07:54:43.323Z,18.21
2018-05-02T07:57:14.295Z,18.65
2018-05-02T07:59:45.448Z,18.83
2018-05-02T08:02:17.299Z,19.24
2018-05-02T08:04:48.418Z,18.60
2018-05-02T08:07:22.460Z,18.05
2018-05-02T08:09:55.728Z,19.26
2018-05-02T08:12:25.946Z,19.61
2018-05-02T08:14:56.759Z,19.87
2018-05-02T08:17:30.228Z,18.94
2018-05-02T08:20:00.392Z,19.13
2018-05-02T08:22:31.708Z,18.13
2018-05-02T08:25:02.245Z,18.36
2018-05-02T08:27:32.711Z,18.65
2018-05-02T08:30:23.539Z,19.68
2018-05-02T08:33:08.350Z,19.36
2018-05-02T08:35:41.244Z,20.10
2018-05-02T08:38:12.131Z,19.52
2018-05-02T08:40:42.449Z,19.49
2018-05-02T08:43:13.359Z,19.76
2018-05-02T08:48:29.160Z,18.91
2018-05-02T08:51:02.046Z,19.89
2018-05-02T08:53:32.671Z,20.16
2018-05-02T08:56:03.428Z,19.48
2018-05-02T08:58:41.441Z,19.55
2018-05-02T09:01:13.877Z,19.68
2018-05-02T09:03:44.247Z,19.80
2018-05-02T09:06:14.994Z,19.98
2018-05-02T09:08:45.807Z,19.72
2018-05-02T09:11:16.369Z,19.67
2018-05-02T09:13:49.238Z,19.09
2018-05-02T09:16:22.462Z,17.63
2018-05-02T09:18:56.264Z,18.21
2018-05-02T09:21:26.677Z,18.47
2018-05-02T09:23:58.185Z,18.92
2018-05-02T09:26:37.963Z,19.43
2018-05-02T09:29:08.719Z,19.14
2018-05-02T09:31:46.116Z,18.80
2018-05-02T09:34:17.021Z,18.24
2018-05-02T09:36:48.881Z,18.83
2018-05-02T09:39:25.908Z,18.41
2018-05-02T09:41:56.823Z,17.80
2018-05-02T09:44:30.349Z,18.32
2018-05-02T09:47:03.546Z,18.88
2018-05-02T09:49:35.331Z,19.64
2018-05-02T09:52:10.029Z,20.38
2018-05-02T09:54:45.819Z,20.09
2018-05-02T09:57:17.753Z,20.40
2018-05-02T09:59:50.899Z,20.57
2018-05-02T10:02:21.869Z,20.12
2018-05-02T10:07:25.292Z,21.52
2018-05-02T10:10:11.780Z,21.75
2018-05-02T10:12:43.993Z,21.02
2018-05-02T10:15:17.580Z,21.28
2018-05-02T10:17:49.707Z,21.83
2018-05-02T10:20:20.038Z,21.06
2018-05-02T10:22:52.173Z,21.73
2018-05-02T10:25:28.485Z,20.89
2018-05-02T10:28:03.755Z,19.94
2018-05-02T10:30:39.326Z,19.96
2018-05-02T10:33:10.163Z,21.14
2018-05-02T10:35:41.706Z,22.00
2018-05-02T10:41:03.360Z,21.41
2018-05-02T10:43:33.783Z,21.83
2018-05-02T10:46:04.348Z,22.49
2018-05-02T10:48:36.430Z,23.09
2018-05-02T10:51:10.171Z,22.06
2018-05-02T10:53:46.939Z,21.93
2018-05-02T10:58:43.709Z,22.67
2018-05-02T11:01:17.326Z,22.22
2018-05-02T11:03:56.364Z,21.16
2018-05-02T11:06:34.453Z,21.19
2018-05-02T11:09:08.895Z,20.74
2018-05-02T11:11:40.238Z,20.29
2018-05-02T11:14:10.512Z,21.71
2018-05-02T11:16:42.951Z,22.22
2018-05-02T11:19:23.802Z,22.69
2018-05-02T11:21:57.796Z,22.32
2018-05-02T11:24:29.639Z,21.61
2018-05-02T11:27:00.274Z,22.72
2018-05-02T11:29:39.786Z,22.19
2018-05-02T11:32:11.243Z,23.74
2018-05-02T11:34:44.722Z,23.23
2018-05-02T11:37:21.848Z,23.74
2018-05-02T11:39:58.829Z,24.59
2018-05-02T11:42:37.543Z,23.57
2018-05-02T11:45:08.809Z,24.34
2018-05-02T11:47:39.635Z,24.70
2018-05-02T11:50:10.386Z,24.30
2018-05-02T11:52:47.049Z,23.91
2018-05-02T11:55:18.326Z,24.00
2018-05-02T11:57:50.335Z,24.40
2018-05-02T12:00:22.397Z,24.39
2018-05-02T12:02:54.885Z,24.66
2018-05-02T12:05:25.913Z,24.81
2018-05-02T12:10:26.245Z,24.45
2018-05-02T12:12:57.742Z,24.61
2018-05-02T12:15:28.398Z,23.84
2018-05-02T12:18:01.646Z,24.69
2018-05-02T12:20:32.169Z,25.27
2018-05-02T12:23:02.489Z,25.08
2018-05-02T12:25:33.362Z,24.52
2018-05-02T12:28:05.300Z,23.08
2018-05-02T12:30:35.960Z,22.39
2018-05-02T12:33:06.221Z,23.17
2018-05-02T12:35:40.351Z,23.63
2018-05-02T12:38:15.416Z,24.38
2018-05-02T12:40:48.701Z,24.40
2018-05-02T12:43:21.691Z,24.47
2018-05-02T12:45:53.829Z,24.01
2018-05-02T12:48:24.186Z,23.98
2018-05-02T12:50:55.755Z,23.25
2018-05-02T12:53:26.845Z,23.04
2018-05-02T12:55:58.453Z,23.23
2018-05-02T12:58:33.958Z,23.39
2018-05-02T13:01:07.447Z,23.95
2018-05-02T13:03:39.261Z,25.04
2018-05-02T13:06:09.791Z,26.06
2018-05-02T13:08:40.771Z,26.22
2018-05-02T13:11:25.591Z,25.31
2018-05-02T13:13:59.300Z,25.30
2018-05-02T13:16:46.627Z,25.69
2018-05-02T13:19:18.380Z,25.68
2018-05-02T13:21:49.936Z,24.87
2018-05-02T13:24:20.848Z,24.64
2018-05-02T13:26:51.869Z,25.40
2018-05-02T13:29:24.474Z,25.45
2018-05-02T13:34:54.001Z,25.06
2018-05-02T13:37:26.801Z,24.89
2018-05-02T13:40:08.643Z,25.04
2018-05-02T13:42:39.266Z,23.11
2018-05-02T13:45:15.148Z,23.37
2018-05-02T13:47:46.532Z,24.22
2018-05-02T13:50:26.378Z,24.15
2018-05-02T13:52:59.218Z,24.52
2018-05-02T13:55:30.072Z,24.52
2018-05-02T13:58:01.447Z,24.98
2018-05-02T14:00:43.343Z,24.62
2018-05-02T14:03:19.133Z,23.28
2018-05-02T14:05:52.425Z,23.53
2018-05-02T14:08:30.215Z,22.87
2018-05-02T14:11:02.033Z,23.44
2018-05-02T14:13:33.627Z,23.16
2018-05-02T14:16:05.651Z,23.49
2018-05-02T14:18:39.514Z,22.93
2018-05-02T14:21:10.837Z,23.26
2018-05-02T14:23:41.886Z,22.81
2018-05-02T14:26:13.577Z,23.32
2018-05-02T14:28:49.386Z,22.88
2018-05-02T14:31:47.506Z,23.39
2018-05-02T14:34:19.475Z,23.76
2018-05-02T14:36:53.240Z,22.99
2018-05-02T14:39:30.756Z,22.56
2018-05-02T14:42:02.779Z,22.98
2018-05-02T14:44:34.442Z,22.98
2018-05-02T14:47:07.519Z,23.59
2018-05-02T14:49:47.137Z,24.02
2018-05-02T14:52:20.582Z,22.99
2018-05-02T14:54:52.634Z,23.40
2018-05-02T14:57:23.966Z,23.91
2018-05-02T14:59:55.951Z,24.04
2018-05-02T15:02:27.064Z,24.29
2018-05-02T15:04:58.134Z,24.48
2018-05-02T15:07:30.018Z,24.33
2018-05-02T15:10:02.904Z,23.48
2018-05-02T15:12:37.722Z,21.98
2018-05-02T15:15:16.534Z,22.56
2018-05-02T15:17:56.316Z,22.22
2018-05-02T15:20:27.611Z,21.79
2018-05-02T15:22:58.445Z,21.92
2018-05-02T15:25:30.663Z,22.19
2018-05-02T15:28:07.696Z,22.46
2018-05-02T15:30:56.806Z,22.22
2018-05-02T15:33:34.352Z,22.10
2018-05-02T15:36:06.090Z,21.83
2018-05-02T15:38:41.683Z,22.26
2018-05-02T15:41:14.732Z,21.71
2018-05-02T15:43:45.277Z,21.24
2018-05-02T15:46:16.388Z,21.76
2018-05-02T15:48:47.569Z,21.43
2018-05-02T15:51:17.827Z,20.84
2018-05-02T15:53:48.337Z,21.48
2018-05-02T15:56:19.104Z,21.30
2018-05-02T15:58:50.649Z,21.06
2018-05-02T16:01:21.275Z,21.52
2018-05-02T16:03:52.392Z,21.94
2018-05-02T16:06:23.248Z,21.80
2018-05-02T16:08:57.592Z,21.02
2018-05-02T16:11:29.523Z,21.19
2018-05-02T16:14:00.991Z,21.22
2018-05-02T16:16:32.340Z,21.55
2018-05-02T16:19:13.236Z,21.37
2018-05-02T16:21:45.033Z,21.64
2018-05-02T16:24:17.058Z,21.28
2018-05-02T16:26:47.468Z,21.29
2018-05-02T16:29:19.076Z,21.69
2018-05-02T16:31:51.536Z,20.58
2018-05-02T16:34:22.575Z,21.04
2018-05-02T16:36:58.044Z,21.62
2018-05-02T16:39:33.968Z,21.49
2018-05-02T16:42:04.621Z,21.40
2018-05-02T16:44:35.127Z,21.69
2018-05-02T16:47:05.919Z,21.99
2018-05-02T16:49:36.263Z,22.16
2018-05-02T16:52:07.536Z,21.47
2018-05-02T16:54:44.088Z,21.78
2018-05-02T16:57:14.670Z,21.82
2018-05-02T16:59:46.947Z,22.07
2018-05-02T17:02:29.514Z,21.71
2018-05-02T17:05:00.107Z,21.56
2018-05-02T17:07:33.594Z,21.72
2018-05-02T17:10:11.629Z,21.65
2018-05-02T17:12:56.345Z,21.26
2018-05-02T17:15:27.577Z,21.20
2018-05-02T17:17:58.603Z,21.30
2018-05-02T17:20:29.115Z,20.90
2018-05-02T17:23:00.104Z,20.90
2018-05-02T17:25:31.756Z,20.85
2018-05-02T17:28:02.887Z,21.09
2018-05-02T17:30:34.786Z,21.14
2018-05-02T17:33:07.634Z,20.89
2018-05-02T17:35:40.026Z,21.16
2018-05-02T17:38:10.965Z,20.67
2018-05-02T17:40:43.716Z,20.55
2018-05-02T17:43:19.556Z,20.70
2018-05-02T17:45:54.077Z,20.51
2018-05-02T17:48:26.101Z,20.26
2018-05-02T17:50:57.879Z,20.51
2018-05-02T17:53:29.412Z,20.69
2018-05-02T17:56:00.309Z,19.99
2018-05-02T17:58:31.585Z,20.12
2018-05-02T18:01:03.361Z,20.08
2018-05-02T18:03:33.897Z,19.72
2018-05-02T18:06:04.312Z,19.66
2018-05-02T18:11:16.626Z,19.82
2018-05-02T18:13:48.151Z,20.01
2018-05-02T18:16:19.223Z,19.77
2018-05-02T18:18:50.605Z,19.62
2018-05-02T18:21:22.236Z,19.36
2018-05-02T18:23:53.599Z,19.54
2018-05-02T18:26:24.378Z,19.59
2018-05-02T18:33:54.485Z,19.34
2018-05-02T18:36:28.443Z,18.94
2018-05-02T18:38:58.937Z,19.29
2018-05-02T18:41:31.417Z,19.13
2018-05-02T18:44:02.366Z,18.89
2018-05-02T18:46:55.636Z,18.82
2018-05-02T18:52:05.834Z,19.25
2018-05-02T18:54:36.271Z,18.79
2018-05-02T18:57:06.572Z,18.97
2018-05-02T18:59:38.874Z,19.17
2018-05-02T19:02:10.317Z,19.29
2018-05-02T19:04:42.320Z,19.26
2018-05-02T19:07:13.291Z,18.75
2018-05-02T19:09:44.569Z,19.17
2018-05-02T19:12:16.677Z,18.89
2018-05-02T19:14:49.092Z,19.10
2018-05-02T19:17:20.427Z,19.18
2018-05-02T19:20:55.854Z,19.15
2018-05-02T19:23:26.488Z,19.02
2018-05-02T19:27:02.372Z,18.90
2018-05-02T19:29:36.995Z,18.75
2018-05-02T19:34:19.982Z,18.93
2018-05-02T19:36:51.315Z,18.89
2018-05-02T19:39:22.633Z,18.63
2018-05-02T19:44:01.250Z,18.52
2018-05-02T19:46:33.242Z,18.52
2018-05-02T19:49:04.487Z,18.19
2018-05-02T19:51:39.455Z,18.23
2018-05-02T19:54:09.922Z,18.35
2018-05-02T19:56:40.231Z,18.38
2018-05-02T19:59:11.809Z,18.37
2018-05-02T20:03:48.584Z,18.45
2018-05-02T20:06:18.997Z,18.48
2018-05-02T20:10:59.103Z,18.55
2018-05-02T20:13:35.027Z,18.62
2018-05-02T20:16:08.492Z,18.52
2018-05-02T20:18:39.761Z,18.45
2018-05-02T20:21:10.192Z,18.34
2018-05-02T20:23:41.520Z,18.33
2018-05-02T20:26:12.501Z,18.26
2018-05-02T20:28:45.890Z,18.25
2018-05-02T20:31:17.815Z,18.30
2018-05-02T20:33:49.794Z,18.21
2018-05-02T20:36:20.296Z,18.22
2018-05-02T20:38:51.564Z,18.30
2018-05-02T20:41:22.533Z,18.21
2018-05-02T20:43:57.175Z,18.11
2018-05-02T20:46:28.729Z,18.04
2018-05-02T20:49:00.880Z,18.09
2018-05-02T20:51:32.032Z,18.08
2018-05-02T20:54:02.729Z,17.94
2018-05-02T20:56:33.640Z,17.90
2018-05-02T20:59:04.727Z,17.80
2018-05-02T21:01:35.413Z,17.74
2018-05-02T21:04:05.721Z,17.82
2018-05-02T21:06:46.518Z,17.97
2018-05-02T21:09:17.026Z,18.10
2018-05-02T21:11:48.184Z,18.19
2018-05-02T21:14:19.164Z,18.19
2018-05-02T21:16:50.380Z,18.26
2018-05-02T21:19:20.920Z,18.30
2018-05-02T21:21:51.366Z,18.30
2018-05-02T21:24:21.773Z,18.28
2018-05-02T21:26:58.600Z,18.25
2018-05-02T21:29:29.716Z,18.28
2018-05-02T21:32:01.557Z,18.26
2018-05-02T21:34:36.025Z,18.27
2018-05-02T21:37:06.403Z,18.23
2018-05-02T21:39:36.860Z,18.18
2018-05-02T21:42:07.261Z,18.17
2018-05-02T21:44:38.521Z,18.07
2018-05-02T21:47:09.636Z,18.15
2018-05-02T21:49:41.121Z,18.12
2018-05-02T21:52:11.663Z,18.09
2018-05-02T21:54:42.808Z,18.13
2018-05-02T21:57:14.783Z,17.99
2018-05-02T21:59:46.049Z,17.82
2018-05-02T22:02:33.276Z,17.84
2018-05-02T22:05:15.313Z,17.97
2018-05-02T22:07:45.668Z,17.94
2018-05-02T22:10:27.522Z,17.97
2018-05-02T22:12:58.361Z,17.97
2018-05-02T22:15:30.372Z,17.93
2018-05-02T22:18:02.942Z,18.04
2018-05-02T22:20:33.292Z,17.94
2018-05-02T22:23:03.801Z,17.99
2018-05-02T22:25:34.622Z,17.92
2018-05-02T22:28:06.276Z,17.91
2018-05-02T22:30:37.293Z,17.92
2018-05-02T22:33:07.647Z,17.97
2018-05-02T22:35:38.441Z,17.95
2018-05-02T22:38:08.968Z,17.96
2018-05-02T22:40:39.578Z,17.89
2018-05-02T22:43:10.366Z,17.79
2018-05-02T22:45:42.062Z,17.74
2018-05-02T22:48:12.526Z,17.81
2018-05-02T22:50:43.179Z,17.74
2018-05-02T22:53:13.469Z,17.79
2018-05-02T22:55:45.161Z,17.79
2018-05-02T22:58:15.682Z,17.79
2018-05-02T23:00:46.765Z,17.79
2018-05-02T23:03:17.714Z,17.73
2018-05-02T23:05:48.050Z,17.69
2018-05-02T23:08:18.471Z,17.65
2018-05-02T23:10:48.708Z,17.70
2018-05-02T23:13:20.368Z,17.70
2018-05-02T23:15:51.618Z,17.69
2018-05-02T23:18:22.195Z,17.66
2018-05-02T23:20:52.491Z,17.66
2018-05-02T23:23:22.860Z,17.67
2018-05-02T23:25:53.598Z,17.70
2018-05-02T23:28:25.119Z,17.79
2018-05-02T23:30:56.882Z,17.73
2018-05-02T23:33:37.013Z,17.75
2018-05-02T23:36:08.436Z,17.56
2018-05-02T23:38:38.830Z,17.59
2018-05-02T23:41:08.989Z,17.60
2018-05-02T23:43:39.350Z,17.53
2018-05-02T23:46:10.754Z,17.42
2018-05-02T23:48:41.647Z,17.33
2018-05-02T23:51:12.231Z,17.33
2018-05-02T23:53:42.642Z,17.35
2018-05-02T23:56:13.461Z,17.16
2018-05-02T23:58:43.861Z,17.13
